createdAt,value
2022-12-19T00:00:33.436Z,-5.70
2022-12-19T00:03:01.636Z,-5.90
2022-12-19T00:05:29.824Z,-5.80
2022-12-19T00:07:58.997Z,-5.70
2022-12-19T00:10:30.577Z,-5.70
2022-12-19T00:12:58.582Z,-5.70
2022-12-19T00:15:26.759Z,-5.90
2022-12-19T00:17:56.218Z,-5.70
2022-12-19T00:20:24.314Z,-5.80
2022-12-19T00:22:52.340Z,-6.00
2022-12-19T00:25:29.285Z,-6.00
2022-12-19T00:27:58.498Z,-5.70
2022-12-19T00:30:26.844Z,-5.70
2022-12-19T00:32:56.260Z,-5.60
2022-12-19T00:35:25.030Z,-5.50
2022-12-19T00:37:53.129Z,-5.60
2022-12-19T00:40:21.415Z,-5.70
2022-12-19T00:42:53.671Z,-5.70
2022-12-19T00:45:22.454Z,-5.60
2022-12-19T00:47:50.549Z,-5.60
2022-12-19T00:50:20.177Z,-5.50
2022-12-19T00:52:48.233Z,-5.30
2022-12-19T00:55:19.008Z,-4.80
2022-12-19T00:57:48.175Z,-5.10
2022-12-19T01:00:18.123Z,-5.30
2022-12-19T01:02:46.949Z,-5.40
2022-12-19T01:05:15.597Z,-5.60
2022-12-19T01:07:45.007Z,-5.80
2022-12-19T01:10:13.105Z,-5.80
2022-12-19T01:12:46.391Z,-5.80
2022-12-19T01:15:16.357Z,-5.70
2022-12-19T01:17:45.123Z,-5.70
2022-12-19T01:20:15.401Z,-5.60
2022-12-19T01:22:45.390Z,-5.60
2022-12-19T01:25:16.065Z,-5.70
2022-12-19T01:27:44.148Z,-5.50
2022-12-19T01:30:13.801Z,-5.50
2022-12-19T01:32:41.869Z,-5.50
2022-12-19T01:35:20.814Z,-5.40
2022-12-19T01:37:51.635Z,-5.20
2022-12-19T01:40:19.960Z,-5.30
2022-12-19T01:42:49.418Z,-5.20
2022-12-19T01:45:33.134Z,-5.30
2022-12-19T01:48:15.913Z,-5.40
2022-12-19T01:51:01.784Z,-5.40
2022-12-19T01:53:37.943Z,-5.40
2022-12-19T01:56:18.674Z,-5.40
2022-12-19T01:58:48.371Z,-5.30
2022-12-19T02:01:18.669Z,-5.50
2022-12-19T02:03:48.265Z,-5.50
2022-12-19T02:06:16.464Z,-5.60
2022-12-19T02:08:49.247Z,-5.60
2022-12-19T02:11:17.627Z,-5.60
2022-12-19T02:13:46.691Z,-5.50
2022-12-19T02:16:30.262Z,-5.50
2022-12-19T02:19:14.722Z,-5.60
2022-12-19T02:21:54.840Z,-5.60
2022-12-19T02:25:00.745Z,-5.80
2022-12-19T02:27:56.047Z,-5.80
2022-12-19T02:30:47.450Z,-5.70
2022-12-19T02:33:19.411Z,-5.80
2022-12-19T02:35:57.271Z,-5.90
2022-12-19T02:38:32.825Z,-5.90
2022-12-19T02:41:07.342Z,-5.80
2022-12-19T02:43:41.470Z,-5.80
2022-12-19T02:46:13.828Z,-5.80
2022-12-19T02:48:43.594Z,-5.90
2022-12-19T02:51:12.940Z,-5.90
2022-12-19T02:53:42.419Z,-6.00
2022-12-19T02:56:24.169Z,-6.00
2022-12-19T02:59:14.130Z,-6.10
2022-12-19T03:01:52.061Z,-6.20
2022-12-19T03:04:36.422Z,-6.10
2022-12-19T03:07:13.146Z,-6.10
2022-12-19T03:09:49.990Z,-6.20
2022-12-19T03:12:26.771Z,-6.20
2022-12-19T03:14:55.860Z,-6.20
2022-12-19T03:17:26.733Z,-6.30
2022-12-19T03:19:54.901Z,-6.20
2022-12-19T03:22:23.367Z,-6.20
2022-12-19T03:24:51.599Z,-5.80
2022-12-19T03:27:25.685Z,-5.80
2022-12-19T03:30:01.157Z,-5.70
2022-12-19T03:32:32.881Z,-5.90
2022-12-19T03:35:06.191Z,-6.10
2022-12-19T03:37:39.341Z,-5.90
2022-12-19T03:40:11.869Z,-5.70
2022-12-19T03:42:59.237Z,-5.70
2022-12-19T03:45:37.639Z,-5.50
2022-12-19T03:48:10.690Z,-5.40
2022-12-19T03:50:49.472Z,-5.40
2022-12-19T03:53:30.194Z,-5.40
2022-12-19T03:56:07.797Z,-5.30
2022-12-19T03:58:39.101Z,-5.40
2022-12-19T04:01:08.188Z,-5.20
2022-12-19T04:03:37.934Z,-5.30
2022-12-19T04:06:07.496Z,-5.20
2022-12-19T04:08:37.143Z,-5.10
2022-12-19T04:11:10.026Z,-5.00
2022-12-19T04:13:42.362Z,-4.70
2022-12-19T04:16:17.842Z,-4.60
2022-12-19T04:18:53.590Z,-4.70
2022-12-19T04:21:28.452Z,-4.70
2022-12-19T04:24:01.918Z,-4.90
2022-12-19T04:26:32.487Z,-5.00
2022-12-19T04:29:05.008Z,-4.80
2022-12-19T04:31:33.406Z,-5.10
2022-12-19T04:34:02.830Z,-5.30
2022-12-19T04:36:31.129Z,-5.30
2022-12-19T04:38:59.301Z,-5.20
2022-12-19T04:41:27.393Z,-5.30
2022-12-19T04:43:55.458Z,-4.40
2022-12-19T04:46:23.540Z,-5.20
2022-12-19T04:48:51.731Z,-5.10
2022-12-19T04:51:21.274Z,-4.80
2022-12-19T04:53:49.403Z,-5.10
2022-12-19T04:56:17.557Z,-5.00
2022-12-19T04:58:45.721Z,-4.90
2022-12-19T05:01:14.351Z,-5.30
2022-12-19T05:03:43.074Z,-5.00
2022-12-19T05:06:13.519Z,-4.50
2022-12-19T05:08:44.243Z,-4.60
2022-12-19T05:11:19.739Z,-4.10
2022-12-19T05:13:50.013Z,-4.70
2022-12-19T05:16:18.792Z,-4.80
2022-12-19T05:18:47.117Z,-5.10
2022-12-19T05:21:15.192Z,-5.00
2022-12-19T05:23:44.771Z,-4.60
2022-12-19T05:26:13.465Z,-4.80
2022-12-19T05:28:41.669Z,-4.90
2022-12-19T05:31:11.657Z,-4.90
2022-12-19T05:33:41.146Z,-4.70
2022-12-19T05:36:10.459Z,-4.90
2022-12-19T05:38:38.793Z,-4.80
2022-12-19T05:41:13.432Z,-4.90
2022-12-19T05:43:41.651Z,-4.50
2022-12-19T05:46:10.218Z,-4.50
2022-12-19T05:49:15.760Z,-4.50
2022-12-19T05:52:02.916Z,-4.20
2022-12-19T05:54:30.999Z,-4.40
2022-12-19T05:57:01.536Z,-4.40
2022-12-19T05:59:29.636Z,-4.40
2022-12-19T06:01:57.829Z,-4.40
2022-12-19T06:04:27.531Z,-4.30
2022-12-19T06:06:55.917Z,-4.40
2022-12-19T06:09:24.348Z,-4.40
2022-12-19T06:11:52.926Z,-4.40
2022-12-19T06:14:22.456Z,-4.40
2022-12-19T06:16:51.223Z,-4.30
2022-12-19T06:19:22.591Z,-4.30
2022-12-19T06:21:50.765Z,-4.20
2022-12-19T06:24:18.937Z,-4.20
2022-12-19T06:26:47.099Z,-4.20
2022-12-19T06:29:15.252Z,-4.10
2022-12-19T06:31:45.274Z,-4.20
2022-12-19T06:34:27.085Z,-4.20
2022-12-19T06:37:06.538Z,-4.20
2022-12-19T06:39:36.467Z,-4.20
2022-12-19T06:42:22.494Z,-3.90
2022-12-19T06:44:50.979Z,-4.10
2022-12-19T06:47:21.664Z,-4.10
2022-12-19T06:49:50.246Z,-3.90
2022-12-19T06:52:19.141Z,-1.70
2022-12-19T06:54:47.273Z,-3.20
2022-12-19T06:57:15.300Z,-3.50
2022-12-19T06:59:43.412Z,-3.90
2022-12-19T07:02:25.821Z,-4.00
2022-12-19T07:05:00.651Z,-4.00
2022-12-19T07:07:29.745Z,-3.90
2022-12-19T07:09:57.966Z,-3.80
2022-12-19T07:12:26.273Z,-3.90
2022-12-19T07:14:54.804Z,-4.00
2022-12-19T07:17:25.826Z,-3.90
2022-12-19T07:19:55.541Z,-3.90
2022-12-19T07:22:24.710Z,-3.90
2022-12-19T07:24:53.022Z,-3.80
2022-12-19T07:27:22.814Z,-3.90
2022-12-19T07:29:51.067Z,-3.90
2022-12-19T07:32:19.168Z,-3.80
2022-12-19T07:34:48.641Z,-3.80
2022-12-19T07:37:16.798Z,-3.60
2022-12-19T07:39:44.931Z,-3.60
2022-12-19T07:42:13.061Z,-3.50
2022-12-19T07:44:41.321Z,-3.30
2022-12-19T07:47:09.352Z,-3.30
2022-12-19T07:49:37.421Z,-3.30
2022-12-19T07:52:06.930Z,-3.30
2022-12-19T07:54:35.133Z,-3.10
2022-12-19T07:57:03.433Z,-3.10
2022-12-19T07:59:38.673Z,-3.00
2022-12-19T08:02:08.087Z,-2.90
2022-12-19T08:04:36.484Z,-2.90
2022-12-19T08:07:06.021Z,-2.70
2022-12-19T08:09:34.111Z,-2.70
2022-12-19T08:12:02.233Z,-2.50
2022-12-19T08:14:30.343Z,-2.30
2022-12-19T08:19:46.638Z,-2.30
2022-12-19T08:22:16.193Z,-2.20
2022-12-19T08:24:44.498Z,-2.10
2022-12-19T08:27:12.703Z,-2.00
2022-12-19T08:29:40.848Z,-1.90
2022-12-19T08:32:08.947Z,-1.90
2022-12-19T08:34:37.079Z,-1.80
2022-12-19T08:37:05.109Z,-1.70
2022-12-19T08:39:34.584Z,-1.60
2022-12-19T08:42:02.683Z,-1.40
2022-12-19T08:44:30.840Z,-1.40
2022-12-19T08:46:58.898Z,-1.20
2022-12-19T08:49:27.103Z,-1.10
2022-12-19T08:51:55.276Z,-1.00
2022-12-19T08:54:23.377Z,-0.80
2022-12-19T08:56:52.866Z,-0.70
2022-12-19T08:59:31.109Z,-0.60
2022-12-19T09:02:01.205Z,-0.60
2022-12-19T09:05:41.421Z,-0.50
2022-12-19T09:07:18.463Z,-0.50
2022-12-19T09:09:46.972Z,-0.30
2022-12-19T09:12:17.484Z,-0.20
2022-12-19T09:14:45.899Z,0.00
2022-12-19T09:17:14.420Z,0.10
2022-12-19T09:19:47.042Z,0.50
2022-12-19T09:22:17.150Z,0.30
2022-12-19T09:24:45.496Z,0.40
2022-12-19T09:27:14.234Z,0.60
2022-12-19T09:29:44.657Z,0.60
2022-12-19T09:32:13.129Z,0.50
2022-12-19T09:34:41.234Z,0.40
2022-12-19T09:37:15.968Z,0.40
2022-12-19T09:39:46.271Z,0.60
2022-12-19T09:42:47.335Z,0.40
2022-12-19T09:45:33.380Z,0.70
2022-12-19T09:48:03.485Z,0.90
2022-12-19T09:50:43.698Z,0.80
2022-12-19T09:53:20.267Z,1.10
2022-12-19T09:55:50.415Z,1.20
2022-12-19T09:58:27.667Z,1.20
2022-12-19T10:00:59.965Z,1.20
2022-12-19T10:03:38.708Z,1.10
2022-12-19T10:07:11.825Z,0.90
2022-12-19T10:10:16.537Z,1.50
2022-12-19T10:12:43.863Z,1.50
2022-12-19T10:15:04.069Z,1.40
2022-12-19T10:17:50.860Z,1.60
2022-12-19T10:20:24.809Z,1.50
2022-12-19T10:23:13.714Z,2.00
2022-12-19T10:25:52.451Z,2.10
2022-12-19T10:28:40.044Z,2.00
2022-12-19T10:31:21.902Z,1.80
2022-12-19T10:33:57.608Z,2.00
2022-12-19T10:36:48.792Z,2.00
2022-12-19T10:39:24.636Z,2.30
2022-12-19T10:41:57.200Z,2.30
2022-12-19T10:44:29.398Z,2.40
2022-12-19T10:46:57.636Z,2.40
2022-12-19T10:49:29.108Z,2.30
2022-12-19T10:52:02.611Z,2.40
2022-12-19T10:54:41.042Z,2.20
2022-12-19T10:57:20.712Z,2.20
2022-12-19T10:59:59.379Z,2.00
2022-12-19T11:02:44.651Z,1.90
2022-12-19T11:05:26.561Z,1.80
2022-12-19T11:08:01.698Z,1.70
2022-12-19T11:11:19.323Z,2.10
2022-12-19T11:19:57.293Z,1.90
2022-12-19T11:24:23.506Z,1.90
2022-12-19T11:29:32.624Z,1.90
2022-12-19T11:29:33.018Z,1.90
2022-12-19T11:29:54.649Z,1.90
2022-12-19T11:30:46.601Z,1.90
2022-12-19T11:34:02.700Z,2.00
2022-12-19T11:36:35.938Z,2.10
2022-12-19T11:39:13.343Z,2.10
2022-12-19T11:41:44.953Z,1.90
2022-12-19T11:44:23.718Z,1.80
2022-12-19T11:47:00.443Z,2.00
2022-12-19T11:49:33.529Z,2.40
2022-12-19T11:53:02.363Z,2.30
2022-12-19T11:55:19.778Z,2.30
2022-12-19T11:57:48.727Z,2.20
2022-12-19T12:00:21.560Z,2.10
2022-12-19T12:03:23.644Z,2.40
2022-12-19T12:05:55.387Z,2.50
2022-12-19T12:10:01.450Z,2.40
2022-12-19T12:17:24.397Z,1.80
2022-12-19T12:22:52.525Z,1.80
2022-12-19T12:30:59.232Z,2.10
2022-12-19T12:31:31.888Z,2.00
2022-12-19T12:31:42.239Z,2.00
2022-12-19T12:31:44.388Z,2.30
2022-12-19T12:31:44.956Z,2.40
2022-12-19T12:35:56.641Z,2.40
2022-12-19T12:39:03.841Z,2.70
2022-12-19T12:41:59.149Z,2.80
2022-12-19T12:44:33.384Z,3.00
2022-12-19T12:47:07.882Z,3.30
2022-12-19T12:49:40.832Z,3.50
2022-12-19T12:52:13.816Z,3.50
2022-12-19T12:54:46.940Z,3.40
2022-12-19T12:57:34.746Z,3.30
2022-12-19T13:00:19.339Z,3.10
2022-12-19T13:02:51.354Z,3.30
2022-12-19T13:05:36.818Z,3.30
2022-12-19T13:08:32.717Z,3.20
2022-12-19T13:11:02.975Z,3.30
2022-12-19T13:13:52.143Z,3.20
2022-12-19T13:16:53.121Z,3.50
2022-12-19T13:19:28.536Z,3.70
2022-12-19T13:22:20.693Z,3.70
2022-12-19T13:24:51.104Z,3.60
2022-12-19T13:27:40.621Z,3.70
2022-12-19T13:30:20.785Z,3.80
2022-12-19T13:33:10.861Z,4.00
2022-12-19T13:38:47.813Z,4.10
2022-12-19T13:39:59.745Z,4.00
2022-12-19T13:41:45.948Z,3.90
2022-12-19T13:44:14.392Z,3.70
2022-12-19T13:46:44.447Z,3.50
2022-12-19T13:49:19.569Z,3.40
2022-12-19T13:51:50.205Z,3.30
2022-12-19T13:54:24.643Z,3.30
2022-12-19T13:56:53.857Z,3.40
2022-12-19T13:59:24.560Z,3.50
2022-12-19T14:01:54.953Z,3.30
2022-12-19T14:04:30.633Z,2.90
2022-12-19T14:07:02.375Z,2.90
2022-12-19T14:11:31.668Z,2.90
2022-12-19T14:13:41.251Z,2.70
2022-12-19T14:15:35.703Z,2.60
2022-12-19T14:18:42.657Z,2.40
2022-12-19T14:22:07.802Z,2.40
2022-12-19T14:24:13.189Z,2.10
2022-12-19T14:28:22.352Z,1.90
2022-12-19T14:30:26.352Z,1.40
2022-12-19T14:33:47.020Z,0.90
2022-12-19T14:36:06.579Z,0.60
2022-12-19T14:39:25.612Z,0.90
2022-12-19T14:41:08.876Z,0.90
2022-12-19T14:43:59.639Z,0.60
2022-12-19T14:51:51.680Z,0.40
2022-12-19T14:54:10.727Z,0.20
2022-12-19T14:54:32.372Z,0.40
2022-12-19T14:56:17.603Z,0.20
2022-12-19T14:58:52.657Z,-0.10
2022-12-19T15:01:24.662Z,-0.40
2022-12-19T15:04:48.524Z,-0.20
2022-12-19T15:07:07.280Z,0.10
2022-12-19T15:11:04.630Z,0.50
2022-12-19T15:14:47.042Z,0.70
2022-12-19T15:15:45.502Z,0.60
2022-12-19T15:18:26.327Z,0.10
2022-12-19T15:20:56.833Z,0.00
2022-12-19T15:23:25.770Z,0.00
2022-12-19T15:26:04.495Z,-0.20
2022-12-19T15:28:40.314Z,-0.20
2022-12-19T15:31:18.706Z,-0.20
2022-12-19T15:34:23.807Z,-0.20
2022-12-19T15:36:35.084Z,-0.20
2022-12-19T15:39:03.697Z,-0.40
2022-12-19T15:41:32.438Z,-0.50
2022-12-19T15:44:08.276Z,-0.60
2022-12-19T15:46:38.885Z,-0.60
2022-12-19T15:49:16.058Z,-0.70
2022-12-19T15:51:44.432Z,-0.70
2022-12-19T15:54:47.227Z,-0.70
2022-12-19T15:57:00.672Z,-0.80
2022-12-19T15:59:38.020Z,-0.70
2022-12-19T16:02:16.088Z,-0.70
2022-12-19T16:04:44.719Z,-0.80
2022-12-19T16:07:16.949Z,-0.90
2022-12-19T16:09:45.000Z,-0.80
2022-12-19T16:12:16.545Z,-0.70
2022-12-19T16:14:48.740Z,-0.80
2022-12-19T16:17:20.930Z,-0.80
2022-12-19T16:19:49.482Z,-0.80
2022-12-19T16:22:20.049Z,-0.90
2022-12-19T16:24:48.229Z,-1.00
2022-12-19T16:27:23.484Z,-1.10
2022-12-19T16:29:54.915Z,-1.00
2022-12-19T16:32:25.515Z,-1.10
2022-12-19T16:34:54.507Z,-1.20
2022-12-19T16:37:25.861Z,-1.10
2022-12-19T16:39:58.445Z,-1.10
2022-12-19T16:42:28.232Z,-1.00
2022-12-19T16:44:58.430Z,-1.00
2022-12-19T16:47:26.617Z,-0.90
2022-12-19T16:49:55.013Z,-1.00
2022-12-19T16:52:23.237Z,-0.90
2022-12-19T16:54:51.361Z,-1.00
2022-12-19T16:57:22.163Z,-1.00
2022-12-19T16:59:52.224Z,-1.00
2022-12-19T17:02:41.536Z,-1.00
2022-12-19T17:05:17.565Z,-1.00
2022-12-19T17:07:45.868Z,-0.50
2022-12-19T17:10:14.320Z,-0.80
2022-12-19T17:12:43.846Z,-1.00
2022-12-19T17:15:22.581Z,-1.00
2022-12-19T17:17:53.606Z,-1.10
2022-12-19T17:20:25.146Z,-0.90
2022-12-19T17:22:53.512Z,-0.90
2022-12-19T17:25:24.263Z,-0.80
2022-12-19T17:27:53.462Z,-0.90
2022-12-19T17:30:22.332Z,-1.10
2022-12-19T17:32:54.535Z,-1.30
2022-12-19T17:35:28.050Z,-1.30
2022-12-19T17:37:58.049Z,-1.30
2022-12-19T17:40:28.740Z,-1.30
2022-12-19T17:42:57.389Z,-1.30
2022-12-19T17:45:26.515Z,-1.30
2022-12-19T17:48:02.271Z,-1.20
2022-12-19T17:50:33.061Z,-1.20
2022-12-19T17:53:01.266Z,-1.20
2022-12-19T17:55:31.239Z,-1.30
2022-12-19T17:58:00.201Z,-1.30
2022-12-19T18:00:32.378Z,-1.20
2022-12-19T18:03:04.946Z,-1.10
2022-12-19T18:05:36.278Z,-0.90
2022-12-19T18:08:05.419Z,-1.00
2022-12-19T18:10:33.615Z,-1.00
2022-12-19T18:13:01.782Z,-1.10
2022-12-19T18:15:29.933Z,-1.10
2022-12-19T18:17:58.960Z,-0.90
2022-12-19T18:20:32.234Z,-0.80
2022-12-19T18:23:02.350Z,-0.90
2022-12-19T18:25:32.608Z,-0.80
2022-12-19T18:28:00.720Z,-0.60
2022-12-19T18:30:29.001Z,-0.40
2022-12-19T18:32:59.443Z,-0.50
2022-12-19T18:35:33.170Z,-0.50
2022-12-19T18:38:02.619Z,-0.30
2022-12-19T18:40:31.864Z,-0.10
2022-12-19T18:43:00.400Z,-0.10
2022-12-19T18:45:35.820Z,-0.30
2022-12-19T18:48:08.434Z,-0.30
2022-12-19T18:50:37.916Z,-0.90
2022-12-19T18:53:12.580Z,-1.20
2022-12-19T18:55:40.783Z,-1.20
2022-12-19T18:58:08.982Z,-0.90
2022-12-19T19:00:39.672Z,-0.50
2022-12-19T19:03:17.996Z,-0.40
2022-12-19T19:05:47.838Z,-0.40
2022-12-19T19:08:18.437Z,-0.40
2022-12-19T19:10:53.181Z,-0.40
2022-12-19T19:13:23.882Z,-0.20
2022-12-19T19:15:54.598Z,-0.20
2022-12-19T19:18:26.107Z,-0.30
2022-12-19T19:21:01.048Z,-0.20
2022-12-19T19:23:33.438Z,-0.10
2022-12-19T19:26:01.673Z,-0.30
2022-12-19T19:28:29.775Z,-0.30
2022-12-19T19:30:59.907Z,-0.40
2022-12-19T19:33:32.576Z,-0.30
2022-12-19T19:36:11.380Z,-0.50
2022-12-19T19:38:42.411Z,-0.40
2022-12-19T19:41:10.594Z,-0.40
2022-12-19T19:43:38.755Z,-0.20
2022-12-19T19:46:07.147Z,-0.20
2022-12-19T19:48:35.962Z,-0.20
2022-12-19T19:51:05.635Z,-0.30
2022-12-19T19:53:35.943Z,-0.30
2022-12-19T19:56:04.932Z,-0.30
2022-12-19T19:58:33.306Z,-0.30
2022-12-19T20:01:01.800Z,-0.40
2022-12-19T20:03:30.061Z,-0.20
2022-12-19T20:06:02.012Z,0.00
2022-12-19T20:08:38.837Z,0.10
2022-12-19T20:11:08.909Z,0.10
2022-12-19T20:13:37.565Z,0.00
2022-12-19T20:16:08.477Z,0.00
2022-12-19T20:18:37.503Z,0.00
2022-12-19T20:21:12.281Z,-0.10
2022-12-19T20:23:43.287Z,0.00
2022-12-19T20:26:12.608Z,-0.10
2022-12-19T20:28:48.404Z,-0.30
2022-12-19T20:31:19.234Z,-1.40
2022-12-19T20:33:48.339Z,-1.10
2022-12-19T20:36:17.486Z,-1.00
2022-12-19T20:38:48.103Z,-0.80
2022-12-19T20:41:17.014Z,-0.80
2022-12-19T20:43:45.351Z,-0.90
2022-12-19T20:46:15.187Z,-0.70
2022-12-19T20:48:44.833Z,-0.80
2022-12-19T20:51:14.720Z,-0.90
2022-12-19T20:53:43.293Z,-0.90
2022-12-19T20:56:15.841Z,-0.50
2022-12-19T20:58:44.450Z,-0.70
2022-12-19T21:01:15.140Z,-0.80
2022-12-19T21:03:44.170Z,-1.00
2022-12-19T21:06:14.752Z,-1.30
2022-12-19T21:08:43.874Z,-1.50
2022-12-19T21:11:15.410Z,-1.40
2022-12-19T21:13:44.301Z,-1.40
2022-12-19T21:16:16.352Z,-1.40
2022-12-19T21:18:46.241Z,-1.40
2022-12-19T21:21:16.999Z,-1.40
2022-12-19T21:23:45.704Z,-1.30
2022-12-19T21:26:15.290Z,-1.20
2022-12-19T21:28:43.614Z,-1.20
2022-12-19T21:31:16.136Z,-1.10
2022-12-19T21:33:45.188Z,-0.90
2022-12-19T21:36:16.683Z,-0.30
2022-12-19T21:38:44.890Z,-0.80
2022-12-19T21:41:18.893Z,-0.60
2022-12-19T21:43:48.711Z,-0.70
2022-12-19T21:46:18.276Z,-0.40
2022-12-19T21:48:48.227Z,-0.60
2022-12-19T21:51:18.546Z,-0.60
2022-12-19T21:53:46.772Z,-0.40
2022-12-19T21:56:24.395Z,-0.60
2022-12-19T21:58:53.967Z,-0.30
2022-12-19T22:01:22.527Z,-0.40
2022-12-19T22:03:51.802Z,0.20
2022-12-19T22:06:27.973Z,-0.20
2022-12-19T22:08:57.558Z,0.00
2022-12-19T22:11:28.196Z,-0.20
2022-12-19T22:13:56.345Z,-0.30
2022-12-19T22:16:24.551Z,-0.20
2022-12-19T22:18:53.075Z,0.00
2022-12-19T22:21:22.494Z,-0.10
2022-12-19T22:23:50.647Z,-0.10
2022-12-19T22:26:20.729Z,-0.10
2022-12-19T22:28:51.908Z,-0.20
2022-12-19T22:31:22.364Z,-0.20
2022-12-19T22:33:52.045Z,-0.30
2022-12-19T22:36:27.684Z,-0.50
2022-12-19T22:38:58.465Z,-0.60
2022-12-19T22:41:27.430Z,-0.50
2022-12-19T22:43:57.639Z,-0.50
2022-12-19T22:46:31.490Z,-0.40
2022-12-19T22:49:01.404Z,-0.40
2022-12-19T22:51:31.241Z,-0.40
2022-12-19T22:54:00.501Z,-0.40
2022-12-19T22:56:30.611Z,-0.40
2022-12-19T22:59:03.460Z,-0.30
2022-12-19T23:01:33.354Z,-0.40
2022-12-19T23:04:03.480Z,-0.30
2022-12-19T23:06:34.203Z,-0.30
2022-12-19T23:09:02.514Z,-0.30
2022-12-19T23:11:32.429Z,-0.40
2022-12-19T23:14:02.596Z,-0.60
2022-12-19T23:16:30.997Z,-0.70
2022-12-19T23:18:59.213Z,-0.60
2022-12-19T23:21:28.046Z,-0.60
2022-12-19T23:23:57.463Z,-0.50
2022-12-19T23:26:27.744Z,-0.40
2022-12-19T23:28:57.849Z,-0.40
2022-12-19T23:31:29.235Z,-0.20
2022-12-19T23:33:59.005Z,0.00
2022-12-19T23:37:08.229Z,0.10
2022-12-19T23:39:16.075Z,0.80
2022-12-19T23:41:44.121Z,0.10
2022-12-19T23:44:12.623Z,0.00
2022-12-19T23:46:42.322Z,-0.10
2022-12-19T23:49:10.452Z,-0.10
2022-12-19T23:51:38.612Z,0.20
2022-12-19T23:54:08.695Z,-0.10
2022-12-19T23:56:37.076Z,-0.20
2022-12-19T23:59:05.364Z,-0.20
